Time;durP1;ratioP1;P1;durP2;ratioP2;P2;SDS_P1;SDS_P2;PMS_P1;PMS_P2;Temp;Humidity;BMP_temperature;BMP_pressure;BME280_temperature;BME280_humidity;BME280_pressure;Samples;Min_cycle;Max_cycle;Signal;HPM_P1;HPM_P2
2023/09/07 00:03:53;;;;;;;15.77;8.43;;;;;;;;;;10166290;29;20488;-88
2023/09/07 00:08:55;;;;;;;10.55;7.85;;;;;;;;;;10165482;29;20063;-88
2023/09/07 00:13:59;;;;;;;13.48;8.23;;;;;;;;;;10165086;29;20067;-88
2023/09/07 00:19:00;;;;;;;13.35;8.13;;;;;;;;;;10175927;29;20027;-90
2023/09/07 00:24:05;;;;;;;13.02;8.00;;;;;;;;;;10180272;29;20432;-90
2023/09/07 00:29:06;;;;;;;10.80;7.67;;;;;;;;;;10166797;29;20032;-88
2023/09/07 00:34:07;;;;;;;14.18;8.45;;;;;;;;;;10165940;29;20119;-88
2023/09/07 00:39:08;;;;;;;12.27;7.72;;;;;;;;;;10164836;29;20039;-89
2023/09/07 00:44:09;;;;;;;13.77;7.75;;;;;;;;;;10164881;29;20047;-89
2023/09/07 00:49:11;;;;;;;16.35;9.50;;;;;;;;;;10164691;29;20036;-89
2023/09/07 00:54:12;;;;;;;11.38;8.32;;;;;;;;;;10163714;29;20083;-88
2023/09/07 00:59:14;;;;;;;11.68;7.80;;;;;;;;;;10164037;29;20064;-88
2023/09/07 01:04:15;;;;;;;13.00;8.38;;;;;;;;;;10176893;29;20088;-89
2023/09/07 01:09:19;;;;;;;11.48;8.13;;;;;;;;;;10164748;29;20040;-89
2023/09/07 01:14:21;;;;;;;13.25;8.00;;;;;;;;;;10163447;29;20024;-89
2023/09/07 01:19:22;;;;;;;14.68;8.05;;;;;;;;;;10164328;29;20051;-89
2023/09/07 01:24:24;;;;;;;11.63;8.05;;;;;;;;;;10163519;29;20322;-90
2023/09/07 01:29:29;;;;;;;12.18;8.05;;;;;;;;;;10164026;29;20036;-90
2023/09/07 01:34:30;;;;;;;14.37;8.50;;;;;;;;;;10175920;29;20024;-90
2023/09/07 01:39:31;;;;;;;11.73;8.10;;;;;;;;;;10162103;29;20031;-88
2023/09/07 01:44:32;;;;;;;12.55;7.88;;;;;;;;;;10162753;29;20040;-89
2023/09/07 01:49:33;;;;;;;13.07;8.40;;;;;;;;;;10162407;29;20020;-90
2023/09/07 01:54:34;;;;;;;12.93;8.85;;;;;;;;;;10162945;29;20043;-89
2023/09/07 01:59:35;;;;;;;11.70;8.13;;;;;;;;;;10162350;29;20058;-89
2023/09/07 02:04:37;;;;;;;12.98;8.50;;;;;;;;;;10162785;29;20071;-88
2023/09/07 02:09:38;;;;;;;13.60;8.88;;;;;;;;;;10185639;29;20094;-88
2023/09/07 02:14:39;;;;;;;12.35;7.43;;;;;;;;;;10160942;29;20040;-89
2023/09/07 02:19:40;;;;;;;15.07;8.93;;;;;;;;;;10161232;29;20039;-91
2023/09/07 02:24:41;;;;;;;12.05;7.85;;;;;;;;;;10147758;29;20040;-89
2023/09/07 02:29:42;;;;;;;13.80;8.13;;;;;;;;;;10162525;29;20032;-89
2023/09/07 02:34:43;;;;;;;11.88;8.20;;;;;;;;;;10162254;29;20024;-90
2023/09/07 02:39:45;;;;;;;10.65;8.50;;;;;;;;;;10161197;29;20036;-90
2023/09/07 02:44:46;;;;;;;11.25;8.18;;;;;;;;;;10163190;29;20044;-88
2023/09/07 02:49:47;;;;;;;12.00;8.18;;;;;;;;;;10161485;29;20035;-90
2023/09/07 02:54:48;;;;;;;14.05;8.90;;;;;;;;;;10163965;29;20035;-90
2023/09/07 02:59:49;;;;;;;12.70;8.57;;;;;;;;;;10151906;29;20036;-90
2023/09/07 03:04:54;;;;;;;15.88;9.02;;;;;;;;;;10148746;29;20040;-89
2023/09/07 03:09:56;;;;;;;13.43;8.23;;;;;;;;;;10146292;29;20758;-88
2023/09/07 03:14:57;;;;;;;13.45;8.95;;;;;;;;;;10143865;29;20404;-90
2023/09/07 03:19:58;;;;;;;15.48;8.82;;;;;;;;;;10150883;29;20032;-88
2023/09/07 03:25:00;;;;;;;15.00;9.02;;;;;;;;;;10151758;29;20044;-87
2023/09/07 03:30:01;;;;;;;15.57;8.93;;;;;;;;;;10151839;29;20057;-86
2023/09/07 03:35:07;;;;;;;11.60;8.10;;;;;;;;;;10150948;29;20038;-84
2023/09/07 03:40:09;;;;;;;13.35;8.52;;;;;;;;;;10151881;29;20028;-88
2023/09/07 03:45:10;;;;;;;12.35;8.50;;;;;;;;;;10151069;29;20134;-88
2023/09/07 03:50:11;;;;;;;14.80;8.60;;;;;;;;;;10151734;29;20400;-88
2023/09/07 03:55:15;;;;;;;15.32;9.30;;;;;;;;;;10151009;29;20052;-90
2023/09/07 04:00:17;;;;;;;12.20;8.38;;;;;;;;;;10151962;29;20035;-88
2023/09/07 04:05:18;;;;;;;14.23;8.68;;;;;;;;;;10160739;29;20047;-87
2023/09/07 04:10:20;;;;;;;13.63;8.88;;;;;;;;;;10166127;29;20127;-86
2023/09/07 04:15:21;;;;;;;14.55;8.48;;;;;;;;;;10157975;29;20550;-88
2023/09/07 04:20:23;;;;;;;14.13;9.05;;;;;;;;;;10149473;29;20040;-88
2023/09/07 04:25:25;;;;;;;12.70;8.48;;;;;;;;;;10147507;29;20135;-84
2023/09/07 04:30:27;;;;;;;12.00;8.30;;;;;;;;;;10147801;29;20036;-88
2023/09/07 04:35:32;;;;;;;12.95;8.90;;;;;;;;;;10147560;29;20384;-86
2023/09/07 04:40:33;;;;;;;11.63;8.35;;;;;;;;;;10147491;29;20059;-87
2023/09/07 04:45:34;;;;;;;13.63;8.82;;;;;;;;;;10139587;29;20071;-87
2023/09/07 04:50:35;;;;;;;12.88;8.38;;;;;;;;;;10148173;29;20043;-85
2023/09/07 04:55:38;;;;;;;14.00;8.60;;;;;;;;;;10148195;29;20650;-86
2023/09/07 05:00:39;;;;;;;11.38;7.85;;;;;;;;;;10148313;29;20079;-86
2023/09/07 05:05:42;;;;;;;13.68;8.82;;;;;;;;;;10148489;29;20807;-87
2023/09/07 05:10:43;;;;;;;12.85;8.90;;;;;;;;;;10147787;29;20028;-86
2023/09/07 05:15:48;;;;;;;17.15;9.88;;;;;;;;;;10147520;29;20047;-86
2023/09/07 05:20:51;;;;;;;12.25;8.73;;;;;;;;;;10147537;29;20036;-85
2023/09/07 05:25:53;;;;;;;13.27;8.70;;;;;;;;;;10147201;29;20043;-86
2023/09/07 05:30:55;;;;;;;13.93;8.73;;;;;;;;;;10147494;29;20036;-87
2023/09/07 05:35:56;;;;;;;15.20;8.98;;;;;;;;;;10147004;29;20042;-85
2023/09/07 05:40:57;;;;;;;15.05;9.02;;;;;;;;;;10145850;29;20071;-89
2023/09/07 05:45:58;;;;;;;13.65;8.65;;;;;;;;;;10118825;29;20041;-88
2023/09/07 05:50:59;;;;;;;13.57;8.32;;;;;;;;;;10123383;29;20039;-88
2023/09/07 05:56:00;;;;;;;13.32;8.20;;;;;;;;;;10142150;29;20056;-89
2023/09/07 06:01:01;;;;;;;12.70;8.43;;;;;;;;;;10143092;29;20043;-87
2023/09/07 06:06:02;;;;;;;14.27;8.25;;;;;;;;;;10141460;29;20069;-89
2023/09/07 06:11:04;;;;;;;13.88;7.70;;;;;;;;;;10127710;29;20035;-87
2023/09/07 06:16:05;;;;;;;10.43;7.13;;;;;;;;;;10143433;29;20901;-88
2023/09/07 06:21:07;;;;;;;12.00;7.07;;;;;;;;;;10144826;29;20047;-88
2023/09/07 06:26:08;;;;;;;14.20;7.35;;;;;;;;;;10144254;29;20667;-88
2023/09/07 06:31:09;;;;;;;13.07;7.68;;;;;;;;;;10145540;29;20044;-88
2023/09/07 06:36:10;;;;;;;9.77;7.22;;;;;;;;;;10154392;29;20032;-89
2023/09/07 06:41:12;;;;;;;13.13;7.78;;;;;;;;;;10143482;29;20047;-89
2023/09/07 06:46:13;;;;;;;10.98;6.80;;;;;;;;;;10140077;29;20484;-89
2023/09/07 06:51:14;;;;;;;14.75;7.63;;;;;;;;;;10143861;29;20040;-88
2023/09/07 06:56:15;;;;;;;12.00;7.43;;;;;;;;;;10143101;29;20107;-89
2023/09/07 07:01:16;;;;;;;12.45;7.32;;;;;;;;;;10143481;29;20098;-87
2023/09/07 07:06:18;;;;;;;11.07;6.85;;;;;;;;;;10142965;29;20508;-90
2023/09/07 07:11:20;;;;;;;13.30;7.00;;;;;;;;;;10150583;29;20040;-89
2023/09/07 07:16:21;;;;;;;12.00;6.50;;;;;;;;;;10137721;29;20512;-88
2023/09/07 07:21:22;;;;;;;9.93;6.18;;;;;;;;;;10147091;29;20171;-89
2023/09/07 07:26:23;;;;;;;9.27;6.22;;;;;;;;;;10137711;29;20041;-88
2023/09/07 07:31:24;;;;;;;8.85;6.05;;;;;;;;;;10137274;29;20044;-88
2023/09/07 07:36:25;;;;;;;9.70;5.78;;;;;;;;;;10161418;29;20024;-87
2023/09/07 07:41:26;;;;;;;9.75;6.22;;;;;;;;;;10143264;29;20079;-89
2023/09/07 07:46:27;;;;;;;8.57;5.30;;;;;;;;;;10138603;29;20708;-89
2023/09/07 07:51:29;;;;;;;9.52;5.13;;;;;;;;;;10151497;29;20031;-88
2023/09/07 07:56:30;;;;;;;8.57;5.40;;;;;;;;;;10138444;29;20052;-89
2023/09/07 08:01:36;;;;;;;8.00;5.03;;;;;;;;;;10139968;29;20126;-87
2023/09/07 08:06:43;;;;;;;10.32;5.78;;;;;;;;;;10129153;29;20523;-88
2023/09/07 08:11:48;;;;;;;8.15;5.00;;;;;;;;;;10142068;29;20028;-89
2023/09/07 08:16:53;;;;;;;8.13;4.78;;;;;;;;;;10160934;29;20043;-87
2023/09/07 08:21:58;;;;;;;8.68;5.38;;;;;;;;;;10150186;29;20051;-88
2023/09/07 08:27:00;;;;;;;10.55;5.57;;;;;;;;;;10165189;29;20028;-89
2023/09/07 08:32:04;;;;;;;7.63;5.22;;;;;;;;;;10149309;29;20040;-88
2023/09/07 08:37:07;;;;;;;6.78;4.90;;;;;;;;;;10146088;29;20061;-87
2023/09/07 08:42:09;;;;;;;8.70;5.28;;;;;;;;;;10156453;29;20059;-86
2023/09/07 08:47:10;;;;;;;7.68;5.20;;;;;;;;;;10145734;29;20035;-88
2023/09/07 08:52:11;;;;;;;7.53;5.13;;;;;;;;;;10156704;29;20052;-88
2023/09/07 08:57:14;;;;;;;6.97;5.15;;;;;;;;;;10148304;29;20059;-89
2023/09/07 09:02:16;;;;;;;7.28;5.15;;;;;;;;;;10147154;29;20543;-88
2023/09/07 09:07:18;;;;;;;7.97;5.47;;;;;;;;;;10146800;29;20055;-88
2023/09/07 09:12:19;;;;;;;11.70;5.85;;;;;;;;;;10146558;29;20064;-90
2023/09/07 09:17:20;;;;;;;7.90;5.22;;;;;;;;;;10146510;29;20028;-91
2023/09/07 09:22:21;;;;;;;7.13;4.88;;;;;;;;;;10146622;29;20079;-87
2023/09/07 09:27:22;;;;;;;8.38;5.05;;;;;;;;;;10147551;29;20102;-90
2023/09/07 09:32:24;;;;;;;7.47;4.82;;;;;;;;;;10144942;29;20539;-91
2023/09/07 09:37:25;;;;;;;7.97;4.72;;;;;;;;;;10152068;29;20127;-87
2023/09/07 09:42:26;;;;;;;10.10;4.65;;;;;;;;;;10140781;29;20131;-88
2023/09/07 09:47:27;;;;;;;8.60;4.75;;;;;;;;;;10135475;29;20134;-88
2023/09/07 09:52:30;;;;;;;6.40;4.35;;;;;;;;;;10140123;29;20040;-88
2023/09/07 09:57:31;;;;;;;6.75;4.97;;;;;;;;;;10126198;29;20060;-89
2023/09/07 10:02:32;;;;;;;7.90;4.60;;;;;;;;;;10138571;29;20233;-87
2023/09/07 10:07:48;;;;;;;5.38;3.97;;;;;;;;;;10141553;29;20039;-88
2023/09/07 10:12:53;;;;;;;8.85;4.57;;;;;;;;;;10139511;29;20067;-88
2023/09/07 10:18:08;;;;;;;5.72;4.30;;;;;;;;;;10155081;29;20047;-89
2023/09/07 10:23:09;;;;;;;8.75;4.32;;;;;;;;;;10154843;29;20051;-87
2023/09/07 10:28:20;;;;;;;9.95;4.70;;;;;;;;;;10143257;29;20088;-85
2023/09/07 10:33:22;;;;;;;10.32;5.05;;;;;;;;;;10144260;29;20135;-90
2023/09/07 10:38:23;;;;;;;7.85;4.25;;;;;;;;;;10142948;29;20036;-87
2023/09/07 10:43:28;;;;;;;6.28;4.68;;;;;;;;;;10140831;29;20048;-91
2023/09/07 10:48:30;;;;;;;10.88;5.45;;;;;;;;;;10143761;29;20040;-86
2023/09/07 10:53:32;;;;;;;8.98;4.38;;;;;;;;;;10143761;29;20209;-88
2023/09/07 10:58:42;;;;;;;7.20;4.07;;;;;;;;;;10146706;29;20071;-90
2023/09/07 11:03:43;;;;;;;5.13;4.20;;;;;;;;;;10150167;29;20036;-88
2023/09/07 11:20:07;;;;;;;5.65;4.35;;;;;;;;;;10122476;29;20040;-89
2023/09/07 11:36:11;;;;;;;6.20;4.60;;;;;;;;;;11016261;23;20060;-89
2023/09/07 11:46:54;;;;;;;4.38;3.50;;;;;;;;;;10167505;29;20039;-88
2023/09/07 11:57:00;;;;;;;4.78;3.65;;;;;;;;;;10987179;23;20555;-88
2023/09/07 12:02:02;;;;;;;8.88;3.90;;;;;;;;;;10182822;29;20047;-88
2023/09/07 12:07:03;;;;;;;4.55;3.63;;;;;;;;;;10186131;29;20046;-92
2023/09/07 12:12:04;;;;;;;10.57;4.50;;;;;;;;;;10166672;29;20126;-89
2023/09/07 12:17:05;;;;;;;4.53;3.42;;;;;;;;;;10184457;29;20047;-88
2023/09/07 12:22:06;;;;;;;5.07;3.65;;;;;;;;;;10189609;29;20123;-87
2023/09/07 12:32:52;;;;;;;6.30;3.70;;;;;;;;;;10215744;29;20068;-87
2023/09/07 12:37:53;;;;;;;5.13;4.00;;;;;;;;;;10188632;29;20032;-89
2023/09/07 12:43:13;;;;;;;6.25;4.03;;;;;;;;;;10187912;29;20040;-84
2023/09/07 12:48:14;;;;;;;6.25;3.72;;;;;;;;;;10182012;29;20076;-88
2023/09/07 12:53:16;;;;;;;5.38;3.90;;;;;;;;;;10191970;29;20062;-87
2023/09/07 12:58:17;;;;;;;5.00;4.15;;;;;;;;;;10142746;29;20066;-90
2023/09/07 13:14:39;;;;;;;5.15;4.00;;;;;;;;;;10156241;29;20456;-88
2023/09/07 13:19:43;;;;;;;4.47;3.10;;;;;;;;;;10163168;29;20066;-88
2023/09/07 13:35:55;;;;;;;5.10;3.47;;;;;;;;;;10156969;29;20107;-90
2023/09/07 14:09:40;;;;;;;6.37;3.37;;;;;;;;;;10116035;29;20040;-88
2023/09/07 14:20:41;;;;;;;5.88;3.63;;;;;;;;;;10116968;29;20048;-92
2023/09/07 14:36:59;;;;;;;5.18;3.65;;;;;;;;;;11091103;23;20072;-90
2023/09/07 14:47:39;;;;;;;4.82;3.63;;;;;;;;;;10108884;29;20028;-89
2023/09/07 14:52:50;;;;;;;4.68;3.50;;;;;;;;;;10132916;29;20032;-91
2023/09/07 14:57:51;;;;;;;5.53;4.03;;;;;;;;;;10119917;29;20544;-93
2023/09/07 15:08:12;;;;;;;6.15;3.72;;;;;;;;;;10099546;29;20107;-90
2023/09/07 15:13:13;;;;;;;4.28;3.88;;;;;;;;;;10118820;29;20037;-89
2023/09/07 15:23:56;;;;;;;5.60;4.30;;;;;;;;;;10114059;29;20668;-90
2023/09/07 15:28:57;;;;;;;6.13;4.32;;;;;;;;;;10119650;29;20136;-91
2023/09/07 15:45:21;;;;;;;5.60;4.25;;;;;;;;;;10141277;29;20103;-90
2023/09/07 15:50:22;;;;;;;5.57;4.18;;;;;;;;;;10116802;29;20481;-91
2023/09/07 15:55:23;;;;;;;5.43;4.45;;;;;;;;;;10112924;29;20396;-90
2023/09/07 16:01:02;;;;;;;4.90;4.22;;;;;;;;;;10119177;29;20366;-90
2023/09/07 16:06:03;;;;;;;7.70;4.45;;;;;;;;;;10118211;29;20052;-90
2023/09/07 16:11:04;;;;;;;7.93;5.13;;;;;;;;;;10117733;29;20040;-91
2023/09/07 16:16:05;;;;;;;5.65;4.50;;;;;;;;;;10117364;29;20038;-92
2023/09/07 16:21:09;;;;;;;9.23;5.28;;;;;;;;;;10114122;29;20093;-89
2023/09/07 16:37:12;;;;;;;7.70;5.05;;;;;;;;;;10128230;29;20048;-92
2023/09/07 16:42:13;;;;;;;11.63;4.72;;;;;;;;;;10125556;29;20048;-91
2023/09/07 16:58:44;;;;;;;8.35;5.38;;;;;;;;;;10112958;29;20028;-90
2023/09/07 17:04:11;;;;;;;7.55;5.28;;;;;;;;;;10115466;29;20037;-90
2023/09/07 17:09:48;;;;;;;9.55;5.95;;;;;;;;;;10133831;29;20518;-93
2023/09/07 17:14:51;;;;;;;8.80;6.20;;;;;;;;;;10120602;29;20032;-92
2023/09/07 17:25:34;;;;;;;7.40;5.63;;;;;;;;;;10178009;23;20083;-92
2023/09/07 17:30:35;;;;;;;9.88;5.95;;;;;;;;;;10147055;29;20028;-91
2023/09/07 17:35:37;;;;;;;10.35;6.50;;;;;;;;;;10156893;29;20028;-92
2023/09/07 17:40:38;;;;;;;8.35;6.00;;;;;;;;;;10146467;29;20484;-91
2023/09/07 17:45:48;;;;;;;8.98;6.28;;;;;;;;;;10146314;29;20063;-94
2023/09/07 17:50:52;;;;;;;10.27;6.60;;;;;;;;;;10172377;29;20039;-93
2023/09/07 17:56:12;;;;;;;9.97;7.20;;;;;;;;;;10136258;29;20048;-91
2023/09/07 18:01:14;;;;;;;9.20;6.40;;;;;;;;;;10162138;29;20119;-92
2023/09/07 18:11:56;;;;;;;8.63;6.18;;;;;;;;;;10160877;29;20473;-93
2023/09/07 18:16:57;;;;;;;8.52;5.75;;;;;;;;;;10119021;29;20045;-92
2023/09/07 18:21:59;;;;;;;11.00;6.88;;;;;;;;;;10112251;29;20036;-93
2023/09/07 18:27:00;;;;;;;9.15;7.18;;;;;;;;;;10106909;29;20064;-91
2023/09/07 18:32:01;;;;;;;11.82;7.43;;;;;;;;;;10105630;29;20032;-91
2023/09/07 18:37:33;;;;;;;9.48;6.88;;;;;;;;;;10116140;29;20465;-92
2023/09/07 18:42:34;;;;;;;13.02;7.80;;;;;;;;;;10122428;29;20048;-91
2023/09/07 18:47:37;;;;;;;12.82;7.70;;;;;;;;;;10104720;29;20428;-91
2023/09/07 18:52:58;;;;;;;15.68;10.02;;;;;;;;;;10100731;29;20080;-90
2023/09/07 18:58:12;;;;;;;14.20;9.65;;;;;;;;;;10098692;29;20088;-91
2023/09/07 19:14:41;;;;;;;16.52;10.15;;;;;;;;;;10121478;29;20049;-91
2023/09/07 19:19:52;;;;;;;;;;;;;;;;;;10105625;29;20756;-93
2023/09/07 19:25:01;;;;;;;14.90;9.52;;;;;;;;;;10097284;29;20093;-93
2023/09/07 19:30:03;;;;;;;14.98;9.60;;;;;;;;;;10099611;29;20314;-94
2023/09/07 19:35:04;;;;;;;18.40;10.82;;;;;;;;;;10108484;29;20045;-91
2023/09/07 19:40:12;;;;;;;14.98;9.30;;;;;;;;;;10106263;29;20025;-89
2023/09/07 19:45:14;;;;;;;17.73;9.55;;;;;;;;;;10108091;29;20033;-91
2023/09/07 19:50:16;;;;;;;22.02;12.93;;;;;;;;;;10101876;29;20029;-91
2023/09/07 19:55:18;;;;;;;16.38;10.95;;;;;;;;;;10118742;29;20165;-91
2023/09/07 20:00:27;;;;;;;16.50;10.77;;;;;;;;;;10109626;29;20033;-93
2023/09/07 20:05:29;;;;;;;16.42;11.10;;;;;;;;;;10096527;29;20139;-89
2023/09/07 20:10:31;;;;;;;17.50;12.15;;;;;;;;;;10117915;29;20135;-91
2023/09/07 20:15:32;;;;;;;14.40;9.90;;;;;;;;;;10095368;29;20039;-92
2023/09/07 20:20:36;;;;;;;18.13;11.43;;;;;;;;;;10109219;29;20051;-92
2023/09/07 20:25:38;;;;;;;16.42;11.23;;;;;;;;;;10128703;29;20048;-90
2023/09/07 20:30:39;;;;;;;17.45;11.07;;;;;;;;;;10095951;29;20032;-92
2023/09/07 20:35:43;;;;;;;18.80;11.98;;;;;;;;;;10103892;29;20028;-91
2023/09/07 20:40:44;;;;;;;17.30;11.48;;;;;;;;;;10095847;29;20036;-90
2023/09/07 20:45:45;;;;;;;19.00;13.27;;;;;;;;;;10108832;29;20041;-91
2023/09/07 20:50:47;;;;;;;30.52;16.88;;;;;;;;;;10103835;29;20366;-91
2023/09/07 20:55:48;;;;;;;17.15;11.55;;;;;;;;;;10111332;29;20028;-90
2023/09/07 21:00:49;;;;;;;20.45;13.38;;;;;;;;;;10110912;29;20643;-92
2023/09/07 21:05:51;;;;;;;17.17;11.55;;;;;;;;;;10109917;29;20454;-92
2023/09/07 21:10:53;;;;;;;19.35;12.80;;;;;;;;;;10109590;29;20032;-90
2023/09/07 21:15:54;;;;;;;29.25;17.17;;;;;;;;;;10109447;29;20473;-90
2023/09/07 21:20:57;;;;;;;169.63;82.40;;;;;;;;;;10108849;29;20577;-91
2023/09/07 21:26:01;;;;;;;476.15;268.33;;;;;;;;;;10109622;29;20142;-91
2023/09/07 21:31:02;;;;;;;430.75;202.25;;;;;;;;;;10109198;29;20029;-92
2023/09/07 21:36:03;;;;;;;348.65;155.52;;;;;;;;;;10109587;29;20053;-91
2023/09/07 21:41:07;;;;;;;83.25;37.45;;;;;;;;;;10108265;29;20101;-92
2023/09/07 21:46:08;;;;;;;42.47;21.73;;;;;;;;;;10113280;29;20044;-93
2023/09/07 21:51:09;;;;;;;31.70;18.30;;;;;;;;;;10113608;29;20056;-92
2023/09/07 21:56:10;;;;;;;19.85;13.00;;;;;;;;;;10108141;29;20037;-92
2023/09/07 22:01:12;;;;;;;19.30;11.32;;;;;;;;;;10121901;29;20032;-91
2023/09/07 22:06:13;;;;;;;25.17;14.95;;;;;;;;;;10108505;29;20044;-92
2023/09/07 22:11:14;;;;;;;27.50;15.55;;;;;;;;;;10107820;29;20044;-91
2023/09/07 22:16:15;;;;;;;41.40;20.88;;;;;;;;;;10107517;29;20036;-92
2023/09/07 22:21:17;;;;;;;24.40;14.50;;;;;;;;;;10107542;29;20223;-92
2023/09/07 22:26:18;;;;;;;39.70;19.83;;;;;;;;;;10106239;29;20095;-91
2023/09/07 22:31:19;;;;;;;22.23;13.10;;;;;;;;;;10106793;29;20032;-93
2023/09/07 22:36:20;;;;;;;17.00;12.15;;;;;;;;;;10116663;29;20069;-91
2023/09/07 22:41:23;;;;;;;17.70;11.93;;;;;;;;;;10107356;29;20043;-93
2023/09/07 22:46:24;;;;;;;20.15;11.48;;;;;;;;;;10106498;29;20033;-90
2023/09/07 22:51:25;;;;;;;18.85;12.48;;;;;;;;;;10106215;29;20119;-92
2023/09/07 22:56:26;;;;;;;21.58;13.35;;;;;;;;;;10107104;29;20032;-91
2023/09/07 23:01:27;;;;;;;17.63;12.50;;;;;;;;;;10107091;29;20032;-92
2023/09/07 23:06:29;;;;;;;18.38;12.95;;;;;;;;;;10105385;29;20049;-90
2023/09/07 23:11:30;;;;;;;17.98;12.05;;;;;;;;;;10106410;29;20080;-91
2023/09/07 23:16:35;;;;;;;17.42;12.38;;;;;;;;;;10106735;29;20039;-92
2023/09/07 23:21:36;;;;;;;;;;;;;;;;;;10107471;29;20040;-91
2023/09/07 23:26:37;;;;;;;18.30;13.13;;;;;;;;;;10105181;29;20458;-90
2023/09/07 23:31:39;;;;;;;18.90;12.95;;;;;;;;;;10104153;29;20075;-90
2023/09/07 23:36:40;;;;;;;21.38;14.63;;;;;;;;;;10110544;29;20035;-91
2023/09/07 23:41:44;;;;;;;20.95;14.23;;;;;;;;;;10113009;29;20033;-92
2023/09/07 23:46:45;;;;;;;21.00;14.95;;;;;;;;;;10113172;29;20679;-92
2023/09/07 23:51:46;;;;;;;23.08;15.20;;;;;;;;;;10113687;29;20037;-91
2023/09/07 23:56:47;;;;;;;25.05;16.88;;;;;;;;;;10118795;29;20056;-91
